Cape Girardeau Regional Airport
KCGI : now visible

Airfield :











YOU CAN JOIN US ON...

 
LOGIN :

Register | Disclaimer

   EN    FR    IT 

 









Legend :    VFR   Marginal VFR   IFR   Intensive IFR   Very Intensive IFR
Visi :
Ceiling :
>= 8 km
>= 3000ft
5 to 8 km
1000 to 3000 ft
1500m to 5 km
500 to 1000 ft
800 to 1500m
200 to 500 ft
< 800m
< 200 ft
Symbols :   Thunderstorms  Fog  Heavy snow  Heavy precipitations  Wind > 20 kt






- Airport Elevation : 342 ft
- IATA code : CGI


KCGI - Cape Girardeau Regional

CURRENT METAR :
  • 030753Z AUTO 04008KT 10SM SCT043 BKN060 24/21 A3002 RMK AO2 SLP161 T02390211 TSNO

EXPIRED METARs :
  • 030708Z AUTO 05008KT 10SM FEW029 SCT070 BKN120 24/22 A3001 RMK AO2 T02440217 TSNO
  • 030653Z AUTO 04011KT 10SM BKN029 BKN033 BKN100 24/22 A3001 RMK AO2 SLP159 T02440217 TSNO
  • 030553Z AUTO 03010KT 10SM BKN015 BKN026 OVC050 25/22 A3002 RMK AO2 SLP160 T02500222 10272 20250 403390222 53004 TSNO

TAF KCGI
Valid from the 03 at 06:00 until the 04 at 06:00 UTC


030520Z 0306/0406 VRB05KT P6SM VCTS SCT015CB BKN110
TEMPO 0306/0309 BKN015CB
FM031100 VRB03KT P6SM VCTS BKN025CB
FM031400 VRB03KT P6SM VCSH SCT025 BKN070
FM031700 VRB04KT P6SM VCTS BKN030CB
FM040100 VRB03KT P6SM SCT100
KZME FIR / North America



MET'MAP, your aeronautical weather chart ! - Copyright ORBIFLY December 2007 - Disclaimer

ORBIFLY MET'MAP TEAM :

Programming & Development : Alexandra Zaïnal
Original concept : Baudouin d'Aumeries
Technical & hardware support : Manuel Goepfert
Assistance : Marc-Olivier Méhu




SOURCES & CREDITS :

   NOAA       Earth
Advisory